sensor_id;sensor_type;location;lat;lon;timestamp;P1;durP1;ratioP1;P2;durP2;ratioP2
11514;SDS011;5814;41.936;25.556;2022-07-10T00:01:52;5.40;;;5.05;;
11514;SDS011;5814;41.936;25.556;2022-07-10T00:04:19;5.97;;;5.65;;
11514;SDS011;5814;41.936;25.556;2022-07-10T00:06:46;5.75;;;5.07;;
11514;SDS011;5814;41.936;25.556;2022-07-10T00:09:14;5.45;;;5.05;;
11514;SDS011;5814;41.936;25.556;2022-07-10T00:11:41;5.65;;;5.25;;
11514;SDS011;5814;41.936;25.556;2022-07-10T00:14:08;6.05;;;5.68;;
11514;SDS011;5814;41.936;25.556;2022-07-10T00:16:35;5.22;;;4.93;;
11514;SDS011;5814;41.936;25.556;2022-07-10T00:19:02;6.00;;;5.57;;
11514;SDS011;5814;41.936;25.556;2022-07-10T00:21:29;5.62;;;5.22;;
11514;SDS011;5814;41.936;25.556;2022-07-10T00:23:57;5.90;;;5.45;;
11514;SDS011;5814;41.936;25.556;2022-07-10T00:26:24;5.85;;;5.50;;
11514;SDS011;5814;41.936;25.556;2022-07-10T00:28:51;6.12;;;5.60;;
11514;SDS011;5814;41.936;25.556;2022-07-10T00:31:18;5.65;;;5.25;;
11514;SDS011;5814;41.936;25.556;2022-07-10T00:33:45;5.55;;;5.12;;
11514;SDS011;5814;41.936;25.556;2022-07-10T00:36:12;5.78;;;5.53;;
11514;SDS011;5814;41.936;25.556;2022-07-10T00:38:40;5.32;;;5.03;;
11514;SDS011;5814;41.936;25.556;2022-07-10T00:41:07;5.85;;;5.35;;
11514;SDS011;5814;41.936;25.556;2022-07-10T00:46:13;5.85;;;5.50;;
11514;SDS011;5814;41.936;25.556;2022-07-10T00:48:40;6.18;;;5.87;;
11514;SDS011;5814;41.936;25.556;2022-07-10T00:51:07;6.80;;;6.37;;
11514;SDS011;5814;41.936;25.556;2022-07-10T00:53:34;5.65;;;5.28;;
11514;SDS011;5814;41.936;25.556;2022-07-10T00:56:01;5.87;;;5.57;;
11514;SDS011;5814;41.936;25.556;2022-07-10T00:58:29;5.93;;;5.62;;
11514;SDS011;5814;41.936;25.556;2022-07-10T01:00:56;6.07;;;5.72;;
11514;SDS011;5814;41.936;25.556;2022-07-10T01:03:23;6.20;;;5.72;;
11514;SDS011;5814;41.936;25.556;2022-07-10T01:05:50;6.15;;;5.65;;
11514;SDS011;5814;41.936;25.556;2022-07-10T01:08:17;5.78;;;5.47;;
11514;SDS011;5814;41.936;25.556;2022-07-10T01:10:45;5.85;;;5.40;;
11514;SDS011;5814;41.936;25.556;2022-07-10T01:13:12;6.20;;;5.80;;
11514;SDS011;5814;41.936;25.556;2022-07-10T01:15:39;5.93;;;5.62;;
11514;SDS011;5814;41.936;25.556;2022-07-10T01:18:06;6.07;;;5.78;;
11514;SDS011;5814;41.936;25.556;2022-07-10T01:20:33;5.80;;;5.32;;
11514;SDS011;5814;41.936;25.556;2022-07-10T01:23:01;6.50;;;6.10;;
11514;SDS011;5814;41.936;25.556;2022-07-10T01:25:28;6.30;;;5.90;;
11514;SDS011;5814;41.936;25.556;2022-07-10T01:27:55;6.43;;;6.00;;
11514;SDS011;5814;41.936;25.556;2022-07-10T01:30:22;5.75;;;5.40;;
11514;SDS011;5814;41.936;25.556;2022-07-10T01:32:49;6.65;;;6.22;;
11514;SDS011;5814;41.936;25.556;2022-07-10T01:35:16;6.20;;;5.75;;
11514;SDS011;5814;41.936;25.556;2022-07-10T01:37:44;6.50;;;6.10;;
11514;SDS011;5814;41.936;25.556;2022-07-10T01:40:11;6.25;;;5.95;;
11514;SDS011;5814;41.936;25.556;2022-07-10T01:42:38;6.85;;;6.22;;
11514;SDS011;5814;41.936;25.556;2022-07-10T01:45:06;6.90;;;6.40;;
11514;SDS011;5814;41.936;25.556;2022-07-10T01:47:34;6.95;;;6.55;;
11514;SDS011;5814;41.936;25.556;2022-07-10T01:50:01;6.28;;;5.87;;
11514;SDS011;5814;41.936;25.556;2022-07-10T01:52:28;6.65;;;6.12;;
11514;SDS011;5814;41.936;25.556;2022-07-10T01:54:55;6.75;;;6.35;;
11514;SDS011;5814;41.936;25.556;2022-07-10T01:57:23;6.97;;;6.32;;
11514;SDS011;5814;41.936;25.556;2022-07-10T01:59:50;7.03;;;6.53;;
11514;SDS011;5814;41.936;25.556;2022-07-10T02:02:17;7.00;;;6.60;;
11514;SDS011;5814;41.936;25.556;2022-07-10T02:04:44;7.00;;;6.60;;
11514;SDS011;5814;41.936;25.556;2022-07-10T02:07:14;7.20;;;6.65;;
11514;SDS011;5814;41.936;25.556;2022-07-10T02:09:40;6.70;;;6.20;;
11514;SDS011;5814;41.936;25.556;2022-07-10T02:12:09;7.25;;;6.75;;
11514;SDS011;5814;41.936;25.556;2022-07-10T02:14:36;6.95;;;6.45;;
11514;SDS011;5814;41.936;25.556;2022-07-10T02:17:04;7.28;;;6.78;;
11514;SDS011;5814;41.936;25.556;2022-07-10T02:19:31;6.72;;;6.22;;
11514;SDS011;5814;41.936;25.556;2022-07-10T02:21:58;7.03;;;6.62;;
11514;SDS011;5814;41.936;25.556;2022-07-10T02:24:25;7.20;;;6.70;;
11514;SDS011;5814;41.936;25.556;2022-07-10T02:26:52;7.22;;;6.72;;
11514;SDS011;5814;41.936;25.556;2022-07-10T02:29:19;7.20;;;6.80;;
11514;SDS011;5814;41.936;25.556;2022-07-10T02:31:47;7.45;;;7.05;;
11514;SDS011;5814;41.936;25.556;2022-07-10T02:34:14;6.68;;;6.35;;
11514;SDS011;5814;41.936;25.556;2022-07-10T02:36:41;6.72;;;6.22;;
11514;SDS011;5814;41.936;25.556;2022-07-10T02:39:08;7.07;;;6.60;;
11514;SDS011;5814;41.936;25.556;2022-07-10T02:41:35;7.20;;;6.70;;
11514;SDS011;5814;41.936;25.556;2022-07-10T02:44:03;6.35;;;5.95;;
11514;SDS011;5814;41.936;25.556;2022-07-10T02:46:30;6.68;;;6.32;;
11514;SDS011;5814;41.936;25.556;2022-07-10T02:48:57;7.03;;;6.57;;
11514;SDS011;5814;41.936;25.556;2022-07-10T02:51:24;7.20;;;6.80;;
11514;SDS011;5814;41.936;25.556;2022-07-10T02:53:51;7.70;;;7.07;;
11514;SDS011;5814;41.936;25.556;2022-07-10T02:56:19;7.20;;;6.80;;
11514;SDS011;5814;41.936;25.556;2022-07-10T02:58:46;8.32;;;7.57;;
11514;SDS011;5814;41.936;25.556;2022-07-10T03:01:13;7.93;;;7.35;;
11514;SDS011;5814;41.936;25.556;2022-07-10T03:03:40;8.45;;;7.75;;
11514;SDS011;5814;41.936;25.556;2022-07-10T03:06:07;7.57;;;7.18;;
11514;SDS011;5814;41.936;25.556;2022-07-10T03:08:34;8.60;;;7.93;;
11514;SDS011;5814;41.936;25.556;2022-07-10T03:11:02;7.80;;;7.30;;
11514;SDS011;5814;41.936;25.556;2022-07-10T03:13:29;7.35;;;6.85;;
11514;SDS011;5814;41.936;25.556;2022-07-10T03:15:56;7.75;;;7.35;;
11514;SDS011;5814;41.936;25.556;2022-07-10T03:18:25;7.70;;;7.10;;
11514;SDS011;5814;41.936;25.556;2022-07-10T03:20:52;8.07;;;7.57;;
11514;SDS011;5814;41.936;25.556;2022-07-10T03:23:19;8.02;;;7.55;;
11514;SDS011;5814;41.936;25.556;2022-07-10T03:25:47;7.90;;;7.43;;
11514;SDS011;5814;41.936;25.556;2022-07-10T03:28:14;7.90;;;7.40;;
11514;SDS011;5814;41.936;25.556;2022-07-10T03:30:41;7.82;;;7.43;;
11514;SDS011;5814;41.936;25.556;2022-07-10T03:33:08;7.82;;;7.32;;
11514;SDS011;5814;41.936;25.556;2022-07-10T03:35:35;8.20;;;7.70;;
11514;SDS011;5814;41.936;25.556;2022-07-10T03:38:02;8.25;;;7.60;;
11514;SDS011;5814;41.936;25.556;2022-07-10T03:40:30;8.10;;;7.70;;
11514;SDS011;5814;41.936;25.556;2022-07-10T03:42:57;8.43;;;7.60;;
11514;SDS011;5814;41.936;25.556;2022-07-10T03:45:24;8.15;;;7.47;;
11514;SDS011;5814;41.936;25.556;2022-07-10T03:47:51;7.50;;;7.10;;
11514;SDS011;5814;41.936;25.556;2022-07-10T03:50:19;7.78;;;7.32;;
11514;SDS011;5814;41.936;25.556;2022-07-10T03:52:46;7.65;;;7.00;;
11514;SDS011;5814;41.936;25.556;2022-07-10T03:55:13;7.68;;;7.28;;
11514;SDS011;5814;41.936;25.556;2022-07-10T03:57:40;7.62;;;7.12;;
11514;SDS011;5814;41.936;25.556;2022-07-10T04:00:13;7.90;;;7.40;;
11514;SDS011;5814;41.936;25.556;2022-07-10T04:02:40;7.35;;;6.95;;
11514;SDS011;5814;41.936;25.556;2022-07-10T04:05:08;7.70;;;7.20;;
11514;SDS011;5814;41.936;25.556;2022-07-10T04:07:35;8.45;;;7.95;;
11514;SDS011;5814;41.936;25.556;2022-07-10T04:10:02;7.90;;;7.50;;
11514;SDS011;5814;41.936;25.556;2022-07-10T04:12:30;8.73;;;8.10;;
11514;SDS011;5814;41.936;25.556;2022-07-10T04:14:57;7.87;;;7.37;;
11514;SDS011;5814;41.936;25.556;2022-07-10T04:17:24;8.82;;;8.32;;
11514;SDS011;5814;41.936;25.556;2022-07-10T04:19:51;8.10;;;7.62;;
11514;SDS011;5814;41.936;25.556;2022-07-10T04:22:18;8.30;;;7.80;;
11514;SDS011;5814;41.936;25.556;2022-07-10T04:24:46;7.78;;;7.37;;
11514;SDS011;5814;41.936;25.556;2022-07-10T04:27:13;7.90;;;7.50;;
11514;SDS011;5814;41.936;25.556;2022-07-10T04:29:40;8.25;;;7.65;;
11514;SDS011;5814;41.936;25.556;2022-07-10T04:32:07;7.45;;;7.05;;
11514;SDS011;5814;41.936;25.556;2022-07-10T04:34:34;8.05;;;7.55;;
11514;SDS011;5814;41.936;25.556;2022-07-10T04:37:02;8.30;;;7.68;;
11514;SDS011;5814;41.936;25.556;2022-07-10T04:39:29;8.40;;;7.90;;
11514;SDS011;5814;41.936;25.556;2022-07-10T04:41:56;8.18;;;7.68;;
11514;SDS011;5814;41.936;25.556;2022-07-10T04:44:23;7.80;;;7.40;;
11514;SDS011;5814;41.936;25.556;2022-07-10T04:46:51;7.78;;;7.05;;
11514;SDS011;5814;41.936;25.556;2022-07-10T04:49:18;7.80;;;7.30;;
11514;SDS011;5814;41.936;25.556;2022-07-10T04:51:45;8.00;;;7.60;;
11514;SDS011;5814;41.936;25.556;2022-07-10T04:54:12;8.00;;;7.60;;
11514;SDS011;5814;41.936;25.556;2022-07-10T04:56:39;8.45;;;7.78;;
11514;SDS011;5814;41.936;25.556;2022-07-10T04:59:06;7.30;;;6.85;;
11514;SDS011;5814;41.936;25.556;2022-07-10T05:01:34;7.03;;;6.60;;
11514;SDS011;5814;41.936;25.556;2022-07-10T05:04:01;7.65;;;7.15;;
11514;SDS011;5814;41.936;25.556;2022-07-10T05:06:28;8.05;;;7.25;;
11514;SDS011;5814;41.936;25.556;2022-07-10T05:08:55;9.38;;;6.85;;
11514;SDS011;5814;41.936;25.556;2022-07-10T05:11:22;6.97;;;6.57;;
11514;SDS011;5814;41.936;25.556;2022-07-10T05:13:49;7.15;;;6.65;;
11514;SDS011;5814;41.936;25.556;2022-07-10T05:16:17;7.03;;;6.62;;
11514;SDS011;5814;41.936;25.556;2022-07-10T05:18:44;7.60;;;7.18;;
11514;SDS011;5814;41.936;25.556;2022-07-10T05:21:11;8.00;;;7.60;;
11514;SDS011;5814;41.936;25.556;2022-07-10T05:23:39;8.10;;;7.60;;
11514;SDS011;5814;41.936;25.556;2022-07-10T05:26:05;8.48;;;7.90;;
11514;SDS011;5814;41.936;25.556;2022-07-10T05:28:33;8.15;;;7.65;;
11514;SDS011;5814;41.936;25.556;2022-07-10T05:31:00;8.23;;;7.47;;
11514;SDS011;5814;41.936;25.556;2022-07-10T05:33:27;7.50;;;7.00;;
11514;SDS011;5814;41.936;25.556;2022-07-10T05:35:54;7.80;;;7.40;;
11514;SDS011;5814;41.936;25.556;2022-07-10T05:38:21;7.50;;;7.10;;
11514;SDS011;5814;41.936;25.556;2022-07-10T05:40:48;7.43;;;6.93;;
11514;SDS011;5814;41.936;25.556;2022-07-10T05:43:16;7.53;;;7.03;;
11514;SDS011;5814;41.936;25.556;2022-07-10T05:45:43;7.25;;;6.75;;
11514;SDS011;5814;41.936;25.556;2022-07-10T05:48:10;8.25;;;7.50;;
11514;SDS011;5814;41.936;25.556;2022-07-10T05:50:37;7.55;;;7.15;;
11514;SDS011;5814;41.936;25.556;2022-07-10T05:53:04;7.40;;;6.90;;
11514;SDS011;5814;41.936;25.556;2022-07-10T05:55:32;7.43;;;6.97;;
11514;SDS011;5814;41.936;25.556;2022-07-10T05:58:00;7.18;;;6.78;;
11514;SDS011;5814;41.936;25.556;2022-07-10T06:00:27;7.55;;;7.05;;
11514;SDS011;5814;41.936;25.556;2022-07-10T06:02:54;10.10;;;7.28;;
11514;SDS011;5814;41.936;25.556;2022-07-10T06:05:21;7.87;;;7.20;;
11514;SDS011;5814;41.936;25.556;2022-07-10T06:07:48;7.22;;;6.82;;
11514;SDS011;5814;41.936;25.556;2022-07-10T06:10:16;7.47;;;6.93;;
11514;SDS011;5814;41.936;25.556;2022-07-10T06:12:43;7.20;;;6.80;;
11514;SDS011;5814;41.936;25.556;2022-07-10T06:15:10;7.60;;;7.10;;
11514;SDS011;5814;41.936;25.556;2022-07-10T06:17:37;7.45;;;6.85;;
11514;SDS011;5814;41.936;25.556;2022-07-10T06:20:05;6.87;;;6.45;;
11514;SDS011;5814;41.936;25.556;2022-07-10T06:22:32;6.80;;;6.40;;
11514;SDS011;5814;41.936;25.556;2022-07-10T06:25:00;7.30;;;6.80;;
11514;SDS011;5814;41.936;25.556;2022-07-10T06:27:27;7.32;;;6.93;;
11514;SDS011;5814;41.936;25.556;2022-07-10T06:29:54;6.72;;;6.35;;
11514;SDS011;5814;41.936;25.556;2022-07-10T06:32:21;6.90;;;6.50;;
11514;SDS011;5814;41.936;25.556;2022-07-10T06:34:48;10.05;;;9.35;;
11514;SDS011;5814;41.936;25.556;2022-07-10T06:37:16;7.53;;;6.90;;
11514;SDS011;5814;41.936;25.556;2022-07-10T06:39:43;7.93;;;6.78;;
11514;SDS011;5814;41.936;25.556;2022-07-10T06:42:10;6.60;;;6.20;;
11514;SDS011;5814;41.936;25.556;2022-07-10T06:44:37;6.72;;;6.12;;
11514;SDS011;5814;41.936;25.556;2022-07-10T06:47:05;6.00;;;5.57;;
11514;SDS011;5814;41.936;25.556;2022-07-10T06:49:37;6.00;;;5.57;;
11514;SDS011;5814;41.936;25.556;2022-07-10T06:52:04;6.05;;;5.55;;
11514;SDS011;5814;41.936;25.556;2022-07-10T06:54:32;5.62;;;5.32;;
11514;SDS011;5814;41.936;25.556;2022-07-10T06:56:59;6.28;;;5.87;;
11514;SDS011;5814;41.936;25.556;2022-07-10T06:59:26;6.00;;;5.60;;
11514;SDS011;5814;41.936;25.556;2022-07-10T07:01:53;6.28;;;5.87;;
11514;SDS011;5814;41.936;25.556;2022-07-10T07:04:20;5.60;;;5.30;;
11514;SDS011;5814;41.936;25.556;2022-07-10T07:06:48;5.93;;;5.60;;
11514;SDS011;5814;41.936;25.556;2022-07-10T07:09:15;6.15;;;5.85;;
11514;SDS011;5814;41.936;25.556;2022-07-10T07:11:42;6.35;;;5.93;;
11514;SDS011;5814;41.936;25.556;2022-07-10T07:14:09;6.25;;;5.72;;
11514;SDS011;5814;41.936;25.556;2022-07-10T07:16:36;5.82;;;5.35;;
11514;SDS011;5814;41.936;25.556;2022-07-10T07:19:05;6.32;;;5.93;;
11514;SDS011;5814;41.936;25.556;2022-07-10T07:21:32;6.57;;;6.18;;
11514;SDS011;5814;41.936;25.556;2022-07-10T07:24:04;6.10;;;5.70;;
11514;SDS011;5814;41.936;25.556;2022-07-10T07:26:32;6.80;;;6.20;;
11514;SDS011;5814;41.936;25.556;2022-07-10T07:28:59;6.20;;;5.80;;
11514;SDS011;5814;41.936;25.556;2022-07-10T07:31:26;6.72;;;6.22;;
11514;SDS011;5814;41.936;25.556;2022-07-10T07:33:53;6.43;;;6.07;;
11514;SDS011;5814;41.936;25.556;2022-07-10T07:36:20;6.07;;;5.68;;
11514;SDS011;5814;41.936;25.556;2022-07-10T07:38:48;6.18;;;5.75;;
11514;SDS011;5814;41.936;25.556;2022-07-10T07:41:15;6.18;;;5.80;;
11514;SDS011;5814;41.936;25.556;2022-07-10T07:43:42;6.50;;;5.93;;
11514;SDS011;5814;41.936;25.556;2022-07-10T07:46:09;6.45;;;5.97;;
11514;SDS011;5814;41.936;25.556;2022-07-10T07:48:36;6.70;;;6.20;;
11514;SDS011;5814;41.936;25.556;2022-07-10T07:51:04;6.68;;;6.18;;
11514;SDS011;5814;41.936;25.556;2022-07-10T07:53:31;7.78;;;7.15;;
11514;SDS011;5814;41.936;25.556;2022-07-10T07:55:58;7.10;;;6.50;;
11514;SDS011;5814;41.936;25.556;2022-07-10T07:58:25;6.40;;;5.90;;
11514;SDS011;5814;41.936;25.556;2022-07-10T08:00:52;6.28;;;5.85;;
11514;SDS011;5814;41.936;25.556;2022-07-10T08:03:20;6.32;;;5.82;;
11514;SDS011;5814;41.936;25.556;2022-07-10T08:05:47;6.30;;;5.85;;
11514;SDS011;5814;41.936;25.556;2022-07-10T08:08:14;6.05;;;5.70;;
11514;SDS011;5814;41.936;25.556;2022-07-10T08:10:41;6.80;;;6.40;;
11514;SDS011;5814;41.936;25.556;2022-07-10T08:13:09;6.47;;;5.95;;
11514;SDS011;5814;41.936;25.556;2022-07-10T08:15:36;6.28;;;5.97;;
11514;SDS011;5814;41.936;25.556;2022-07-10T08:18:03;7.60;;;6.62;;
11514;SDS011;5814;41.936;25.556;2022-07-10T08:20:30;6.07;;;5.68;;
11514;SDS011;5814;41.936;25.556;2022-07-10T08:22:57;6.53;;;6.12;;
11514;SDS011;5814;41.936;25.556;2022-07-10T08:25:25;7.30;;;6.65;;
11514;SDS011;5814;41.936;25.556;2022-07-10T08:27:52;6.72;;;6.07;;
11514;SDS011;5814;41.936;25.556;2022-07-10T08:30:19;6.43;;;5.75;;
11514;SDS011;5814;41.936;25.556;2022-07-10T08:32:46;6.95;;;6.30;;
11514;SDS011;5814;41.936;25.556;2022-07-10T08:35:13;6.22;;;5.85;;
11514;SDS011;5814;41.936;25.556;2022-07-10T08:37:41;6.20;;;5.80;;
11514;SDS011;5814;41.936;25.556;2022-07-10T08:40:08;6.45;;;5.90;;
11514;SDS011;5814;41.936;25.556;2022-07-10T08:42:36;7.00;;;6.50;;
11514;SDS011;5814;41.936;25.556;2022-07-10T08:45:03;6.15;;;5.85;;
11514;SDS011;5814;41.936;25.556;2022-07-10T08:47:32;7.00;;;6.55;;
11514;SDS011;5814;41.936;25.556;2022-07-10T08:49:58;6.28;;;5.87;;
11514;SDS011;5814;41.936;25.556;2022-07-10T08:52:28;6.35;;;5.95;;
11514;SDS011;5814;41.936;25.556;2022-07-10T08:54:56;5.87;;;5.53;;
11514;SDS011;5814;41.936;25.556;2022-07-10T08:57:23;5.93;;;5.62;;
11514;SDS011;5814;41.936;25.556;2022-07-10T08:59:50;6.00;;;5.60;;
11514;SDS011;5814;41.936;25.556;2022-07-10T09:02:17;6.20;;;5.70;;
11514;SDS011;5814;41.936;25.556;2022-07-10T09:04:45;6.80;;;6.28;;
11514;SDS011;5814;41.936;25.556;2022-07-10T09:07:12;5.95;;;5.45;;
11514;SDS011;5814;41.936;25.556;2022-07-10T09:09:50;5.68;;;5.18;;
11514;SDS011;5814;41.936;25.556;2022-07-10T09:12:15;5.45;;;5.15;;
11514;SDS011;5814;41.936;25.556;2022-07-10T09:14:42;5.22;;;4.93;;
11514;SDS011;5814;41.936;25.556;2022-07-10T09:17:09;6.07;;;5.57;;
11514;SDS011;5814;41.936;25.556;2022-07-10T09:19:36;7.78;;;7.12;;
11514;SDS011;5814;41.936;25.556;2022-07-10T09:22:05;6.12;;;5.60;;
11514;SDS011;5814;41.936;25.556;2022-07-10T09:24:36;5.65;;;5.25;;
11514;SDS011;5814;41.936;25.556;2022-07-10T09:27:03;5.22;;;4.93;;
11514;SDS011;5814;41.936;25.556;2022-07-10T09:29:31;5.90;;;5.50;;
11514;SDS011;5814;41.936;25.556;2022-07-10T09:31:59;5.93;;;5.37;;
11514;SDS011;5814;41.936;25.556;2022-07-10T09:37:22;6.70;;;6.20;;
11514;SDS011;5814;41.936;25.556;2022-07-10T09:39:51;7.37;;;6.05;;
11514;SDS011;5814;41.936;25.556;2022-07-10T09:42:36;6.32;;;5.95;;
11514;SDS011;5814;41.936;25.556;2022-07-10T09:47:40;6.05;;;5.68;;
11514;SDS011;5814;41.936;25.556;2022-07-10T09:50:39;8.55;;;6.18;;
11514;SDS011;5814;41.936;25.556;2022-07-10T09:52:52;5.37;;;5.07;;
11514;SDS011;5814;41.936;25.556;2022-07-10T09:55:20;6.12;;;5.72;;
11514;SDS011;5814;41.936;25.556;2022-07-10T09:57:48;5.65;;;5.25;;
11514;SDS011;5814;41.936;25.556;2022-07-10T10:00:14;5.78;;;5.37;;
11514;SDS011;5814;41.936;25.556;2022-07-10T10:02:42;5.57;;;5.28;;
11514;SDS011;5814;41.936;25.556;2022-07-10T10:05:09;6.25;;;5.72;;
11514;SDS011;5814;41.936;25.556;2022-07-10T10:07:36;6.00;;;5.60;;
11514;SDS011;5814;41.936;25.556;2022-07-10T10:10:03;6.53;;;5.68;;
11514;SDS011;5814;41.936;25.556;2022-07-10T10:12:34;5.40;;;5.10;;
11514;SDS011;5814;41.936;25.556;2022-07-10T10:15:01;5.82;;;5.40;;
11514;SDS011;5814;41.936;25.556;2022-07-10T10:17:28;5.95;;;5.55;;
11514;SDS011;5814;41.936;25.556;2022-07-10T10:19:56;5.70;;;5.40;;
11514;SDS011;5814;41.936;25.556;2022-07-10T10:22:29;6.28;;;5.80;;
11514;SDS011;5814;41.936;25.556;2022-07-10T10:24:56;6.10;;;5.80;;
11514;SDS011;5814;41.936;25.556;2022-07-10T10:27:23;6.30;;;5.50;;
11514;SDS011;5814;41.936;25.556;2022-07-10T10:29:51;5.80;;;5.43;;
11514;SDS011;5814;41.936;25.556;2022-07-10T10:32:18;6.32;;;5.90;;
11514;SDS011;5814;41.936;25.556;2022-07-10T10:34:46;5.72;;;5.40;;
11514;SDS011;5814;41.936;25.556;2022-07-10T10:39:51;6.05;;;5.65;;
11514;SDS011;5814;41.936;25.556;2022-07-10T10:48:08;9.13;;;8.43;;
11514;SDS011;5814;41.936;25.556;2022-07-10T10:53:02;5.80;;;5.50;;
11514;SDS011;5814;41.936;25.556;2022-07-10T10:55:29;6.10;;;5.70;;
11514;SDS011;5814;41.936;25.556;2022-07-10T11:00:35;5.47;;;5.18;;
11514;SDS011;5814;41.936;25.556;2022-07-10T11:05:40;5.07;;;4.68;;
11514;SDS011;5814;41.936;25.556;2022-07-10T11:08:07;4.93;;;4.62;;
11514;SDS011;5814;41.936;25.556;2022-07-10T11:10:35;4.65;;;4.45;;
11514;SDS011;5814;41.936;25.556;2022-07-10T11:13:03;5.00;;;4.60;;
11514;SDS011;5814;41.936;25.556;2022-07-10T11:15:30;5.75;;;4.60;;
11514;SDS011;5814;41.936;25.556;2022-07-10T11:17:57;5.55;;;5.05;;
11514;SDS011;5814;41.936;25.556;2022-07-10T11:20:24;5.53;;;5.12;;
11514;SDS011;5814;41.936;25.556;2022-07-10T11:22:57;5.25;;;4.85;;
11514;SDS011;5814;41.936;25.556;2022-07-10T11:25:29;5.22;;;4.87;;
11514;SDS011;5814;41.936;25.556;2022-07-10T11:28:06;5.05;;;4.75;;
11514;SDS011;5814;41.936;25.556;2022-07-10T11:33:10;4.97;;;4.70;;
11514;SDS011;5814;41.936;25.556;2022-07-10T11:35:38;5.18;;;4.87;;
11514;SDS011;5814;41.936;25.556;2022-07-10T11:38:05;5.68;;;5.18;;
11514;SDS011;5814;41.936;25.556;2022-07-10T11:40:36;4.50;;;4.30;;
11514;SDS011;5814;41.936;25.556;2022-07-10T11:43:03;4.80;;;4.50;;
11514;SDS011;5814;41.936;25.556;2022-07-10T11:45:31;4.82;;;4.53;;
11514;SDS011;5814;41.936;25.556;2022-07-10T11:47:58;6.78;;;4.85;;
11514;SDS011;5814;41.936;25.556;2022-07-10T11:50:25;5.45;;;5.15;;
11514;SDS011;5814;41.936;25.556;2022-07-10T11:52:53;4.93;;;4.65;;
11514;SDS011;5814;41.936;25.556;2022-07-10T11:55:20;4.95;;;4.65;;
11514;SDS011;5814;41.936;25.556;2022-07-10T11:57:47;5.20;;;4.87;;
11514;SDS011;5814;41.936;25.556;2022-07-10T12:00:21;5.70;;;5.20;;
11514;SDS011;5814;41.936;25.556;2022-07-10T12:02:50;5.00;;;4.70;;
11514;SDS011;5814;41.936;25.556;2022-07-10T12:07:56;4.90;;;4.70;;
11514;SDS011;5814;41.936;25.556;2022-07-10T12:10:26;5.05;;;4.70;;
11514;SDS011;5814;41.936;25.556;2022-07-10T12:15:31;5.50;;;5.05;;
11514;SDS011;5814;41.936;25.556;2022-07-10T12:17:59;5.60;;;5.30;;
11514;SDS011;5814;41.936;25.556;2022-07-10T12:20:26;5.47;;;5.07;;
11514;SDS011;5814;41.936;25.556;2022-07-10T12:22:54;5.57;;;5.10;;
11514;SDS011;5814;41.936;25.556;2022-07-10T12:25:21;5.07;;;4.78;;
11514;SDS011;5814;41.936;25.556;2022-07-10T12:27:48;5.18;;;4.87;;
11514;SDS011;5814;41.936;25.556;2022-07-10T12:30:15;5.40;;;5.10;;
11514;SDS011;5814;41.936;25.556;2022-07-10T12:32:42;6.15;;;5.82;;
11514;SDS011;5814;41.936;25.556;2022-07-10T12:35:09;5.70;;;5.30;;
11514;SDS011;5814;41.936;25.556;2022-07-10T12:37:37;7.57;;;6.95;;
11514;SDS011;5814;41.936;25.556;2022-07-10T12:40:04;5.75;;;5.43;;
11514;SDS011;5814;41.936;25.556;2022-07-10T12:42:32;5.40;;;5.10;;
11514;SDS011;5814;41.936;25.556;2022-07-10T12:47:50;5.70;;;5.30;;
11514;SDS011;5814;41.936;25.556;2022-07-10T12:50:17;5.12;;;4.93;;
11514;SDS011;5814;41.936;25.556;2022-07-10T12:52:44;5.30;;;5.00;;
11514;SDS011;5814;41.936;25.556;2022-07-10T12:55:14;5.50;;;5.10;;
11514;SDS011;5814;41.936;25.556;2022-07-10T12:57:46;5.70;;;5.15;;
11514;SDS011;5814;41.936;25.556;2022-07-10T13:00:14;5.50;;;5.10;;
11514;SDS011;5814;41.936;25.556;2022-07-10T13:02:42;5.68;;;5.28;;
11514;SDS011;5814;41.936;25.556;2022-07-10T13:05:09;5.60;;;5.20;;
11514;SDS011;5814;41.936;25.556;2022-07-10T13:07:36;5.45;;;5.15;;
11514;SDS011;5814;41.936;25.556;2022-07-10T13:10:05;5.20;;;5.00;;
11514;SDS011;5814;41.936;25.556;2022-07-10T13:12:32;5.80;;;5.30;;
11514;SDS011;5814;41.936;25.556;2022-07-10T13:14:59;6.35;;;5.72;;
11514;SDS011;5814;41.936;25.556;2022-07-10T13:17:26;4.80;;;4.60;;
11514;SDS011;5814;41.936;25.556;2022-07-10T13:19:53;5.32;;;5.00;;
11514;SDS011;5814;41.936;25.556;2022-07-10T13:22:20;5.85;;;5.45;;
11514;SDS011;5814;41.936;25.556;2022-07-10T13:24:47;5.18;;;4.90;;
11514;SDS011;5814;41.936;25.556;2022-07-10T13:27:15;5.05;;;4.75;;
11514;SDS011;5814;41.936;25.556;2022-07-10T13:29:42;5.40;;;5.03;;
11514;SDS011;5814;41.936;25.556;2022-07-10T13:32:09;5.43;;;5.12;;
11514;SDS011;5814;41.936;25.556;2022-07-10T13:34:36;5.18;;;4.87;;
11514;SDS011;5814;41.936;25.556;2022-07-10T13:37:04;5.50;;;5.25;;
11514;SDS011;5814;41.936;25.556;2022-07-10T13:39:31;5.62;;;5.30;;
11514;SDS011;5814;41.936;25.556;2022-07-10T13:41:58;6.07;;;5.57;;
11514;SDS011;5814;41.936;25.556;2022-07-10T13:44:25;5.18;;;4.87;;
11514;SDS011;5814;41.936;25.556;2022-07-10T13:46:52;5.00;;;4.75;;
11514;SDS011;5814;41.936;25.556;2022-07-10T13:49:19;5.20;;;4.90;;
11514;SDS011;5814;41.936;25.556;2022-07-10T13:51:47;5.28;;;4.87;;
11514;SDS011;5814;41.936;25.556;2022-07-10T13:54:14;5.72;;;5.28;;
11514;SDS011;5814;41.936;25.556;2022-07-10T13:56:41;5.07;;;4.72;;
11514;SDS011;5814;41.936;25.556;2022-07-10T13:59:08;5.37;;;4.97;;
11514;SDS011;5814;41.936;25.556;2022-07-10T14:01:35;5.50;;;5.20;;
11514;SDS011;5814;41.936;25.556;2022-07-10T14:04:03;5.22;;;4.82;;
11514;SDS011;5814;41.936;25.556;2022-07-10T14:06:30;5.00;;;4.80;;
11514;SDS011;5814;41.936;25.556;2022-07-10T14:08:57;5.00;;;4.72;;
11514;SDS011;5814;41.936;25.556;2022-07-10T14:11:24;5.37;;;4.97;;
11514;SDS011;5814;41.936;25.556;2022-07-10T14:13:51;5.50;;;5.03;;
11514;SDS011;5814;41.936;25.556;2022-07-10T14:16:19;5.10;;;4.80;;
11514;SDS011;5814;41.936;25.556;2022-07-10T14:18:46;5.40;;;5.10;;
11514;SDS011;5814;41.936;25.556;2022-07-10T14:21:13;6.37;;;5.87;;
11514;SDS011;5814;41.936;25.556;2022-07-10T14:23:41;5.50;;;5.20;;
11514;SDS011;5814;41.936;25.556;2022-07-10T14:26:07;5.80;;;5.40;;
11514;SDS011;5814;41.936;25.556;2022-07-10T14:28:34;5.43;;;5.12;;
11514;SDS011;5814;41.936;25.556;2022-07-10T14:31:02;5.22;;;5.03;;
11514;SDS011;5814;41.936;25.556;2022-07-10T14:33:31;5.35;;;5.03;;
11514;SDS011;5814;41.936;25.556;2022-07-10T14:35:57;5.15;;;4.90;;
11514;SDS011;5814;41.936;25.556;2022-07-10T14:38:24;5.07;;;4.72;;
11514;SDS011;5814;41.936;25.556;2022-07-10T14:40:52;5.15;;;4.75;;
11514;SDS011;5814;41.936;25.556;2022-07-10T14:43:19;5.78;;;5.37;;
11514;SDS011;5814;41.936;25.556;2022-07-10T14:45:46;5.62;;;5.15;;
11514;SDS011;5814;41.936;25.556;2022-07-10T14:48:13;5.57;;;5.28;;
11514;SDS011;5814;41.936;25.556;2022-07-10T14:50:40;5.87;;;5.30;;
11514;SDS011;5814;41.936;25.556;2022-07-10T14:53:08;5.28;;;4.97;;
11514;SDS011;5814;41.936;25.556;2022-07-10T14:55:35;4.95;;;4.75;;
11514;SDS011;5814;41.936;25.556;2022-07-10T14:58:02;5.07;;;4.75;;
11514;SDS011;5814;41.936;25.556;2022-07-10T15:00:29;6.50;;;6.20;;
11514;SDS011;5814;41.936;25.556;2022-07-10T15:02:56;4.90;;;4.70;;
11514;SDS011;5814;41.936;25.556;2022-07-10T15:05:23;5.37;;;5.07;;
11514;SDS011;5814;41.936;25.556;2022-07-10T15:07:51;5.30;;;5.00;;
11514;SDS011;5814;41.936;25.556;2022-07-10T15:10:18;5.28;;;4.97;;
11514;SDS011;5814;41.936;25.556;2022-07-10T15:12:45;6.87;;;5.22;;
11514;SDS011;5814;41.936;25.556;2022-07-10T15:15:12;5.30;;;4.90;;
11514;SDS011;5814;41.936;25.556;2022-07-10T15:17:39;5.20;;;4.90;;
11514;SDS011;5814;41.936;25.556;2022-07-10T15:20:07;5.68;;;5.28;;
11514;SDS011;5814;41.936;25.556;2022-07-10T15:22:35;5.22;;;5.03;;
11514;SDS011;5814;41.936;25.556;2022-07-10T15:25:02;5.20;;;5.00;;